Time;durP1;ratioP1;P1;durP2;ratioP2;P2;SDS_P1;SDS_P2;PMS_P1;PMS_P2;Temp;Humidity;BMP_temperature;BMP_pressure;BME280_temperature;BME280_humidity;BME280_pressure;Samples;Min_cycle;Max_cycle;Signal;HPM_P1;HPM_P2
2021/07/12 00:02:03;;;;;;;5.57;3.10;;;17.40;99.90;;;;;;5064980;28;20028;-78
2021/07/12 00:04:29;;;;;;;6.05;3.15;;;17.30;99.90;;;;;;5062598;28;20032;-78
2021/07/12 00:06:54;;;;;;;6.47;2.92;;;17.30;99.90;;;;;;5060985;28;20067;-77
2021/07/12 00:09:20;;;;;;;3.55;2.47;;;17.30;99.90;;;;;;5064667;28;20033;-79
2021/07/12 00:11:46;;;;;;;4.20;2.90;;;17.30;99.90;;;;;;5062703;28;20035;-77
2021/07/12 00:14:11;;;;;;;5.55;3.30;;;17.30;99.90;;;;;;5062067;28;20052;-79
2021/07/12 00:16:37;;;;;;;4.05;3.05;;;17.40;99.90;;;;;;5067043;28;20060;-78
2021/07/12 00:19:03;;;;;;;12.10;5.72;;;17.20;99.90;;;;;;5064953;28;20078;-78
2021/07/12 00:21:29;;;;;;;5.07;3.45;;;18.50;99.90;;;;;;5064710;28;20028;-79
2021/07/12 00:23:55;;;;;;;6.07;3.40;;;17.30;99.90;;;;;;5067807;28;20414;-79
2021/07/12 00:26:21;;;;;;;5.07;3.40;;;17.20;99.90;;;;;;5065667;28;20021;-78
2021/07/12 00:28:46;;;;;;;10.77;5.40;;;17.20;99.90;;;;;;5065135;28;20363;-78
2021/07/12 00:31:12;;;;;;;8.80;3.35;;;17.50;99.90;;;;;;5063299;28;20047;-78
2021/07/12 00:33:39;;;;;;;3.75;2.60;;;17.10;99.90;;;;;;5057229;28;20448;-77
2021/07/12 00:36:06;;;;;;;4.63;2.90;;;17.10;99.90;;;;;;5059302;28;20037;-76
2021/07/12 00:38:32;;;;;;;5.22;3.05;;;17.00;99.90;;;;;;5064506;28;20025;-78
2021/07/12 00:40:58;;;;;;;5.28;3.15;;;16.90;99.90;;;;;;5067665;28;20477;-77
2021/07/12 00:43:24;;;;;;;5.60;3.30;;;;;;;;;;5064058;28;20072;-78
2021/07/12 00:45:51;;;;;;;4.25;2.88;;;16.90;99.90;;;;;;5062628;28;20497;-78
2021/07/12 00:48:16;;;;;;;5.53;3.47;;;16.90;99.90;;;;;;5062120;28;20453;-79
2021/07/12 00:50:44;;;;;;;5.15;2.90;;;16.90;99.90;;;;;;5064852;28;20082;-80
2021/07/12 00:53:11;;;;;;;5.95;3.20;;;17.00;99.90;;;;;;5062337;28;20115;-79
2021/07/12 00:55:45;;;;;;;4.65;3.50;;;17.00;99.90;;;;;;5064070;28;20037;-80
2021/07/12 00:58:15;;;;;;;5.05;3.35;;;17.00;99.90;;;;;;5061592;28;20032;-78
2021/07/12 01:00:44;;;;;;;16.73;4.88;;;17.10;99.90;;;;;;5065085;28;20020;-80
2021/07/12 01:03:10;;;;;;;7.85;4.40;;;17.00;99.90;;;;;;5065291;28;20032;-79
2021/07/12 01:05:41;;;;;;;31.00;7.15;;;18.70;99.90;;;;;;5063600;28;20086;-79
2021/07/12 01:08:07;;;;;;;18.00;7.97;;;17.50;99.90;;;;;;5060879;28;20514;-79
2021/07/12 01:10:33;;;;;;;7.63;4.25;;;17.00;99.90;;;;;;5060150;28;20021;-80
2021/07/12 01:13:12;;;;;;;4.60;3.40;;;17.00;99.90;;;;;;5065636;28;20658;-79
2021/07/12 01:15:53;;;;;;;6.30;3.30;;;17.00;99.90;;;;;;5063501;28;20033;-77
2021/07/12 01:18:44;;;;;;;9.98;3.95;;;17.00;99.90;;;;;;5063860;28;20498;-79
2021/07/12 01:21:37;;;;;;;7.25;3.97;;;16.90;99.90;;;;;;5061775;28;20033;-79
2021/07/12 01:24:41;;;;;;;9.45;4.40;;;17.00;99.90;;;;;;5064766;28;20067;-77
2021/07/12 01:27:24;;;;;;;4.80;3.58;;;16.90;99.90;;;;;;5059786;28;20024;-78
2021/07/12 01:30:22;;;;;;;6.03;3.00;;;17.00;99.90;;;;;;5064061;28;20040;-79
2021/07/12 01:33:04;;;;;;;5.57;3.50;;;17.00;99.90;;;;;;5062230;28;20024;-79
2021/07/12 01:35:35;;;;;;;5.90;3.75;;;16.90;99.90;;;;;;5062365;28;20025;-78
2021/07/12 01:38:23;;;;;;;5.57;3.25;;;17.30;99.90;;;;;;5059671;28;20088;-80
2021/07/12 01:41:00;;;;;;;5.70;3.67;;;16.90;99.90;;;;;;5056672;28;20032;-78
2021/07/12 01:43:38;;;;;;;5.55;3.30;;;16.90;99.90;;;;;;5061022;28;20120;-78
2021/07/12 01:46:26;;;;;;;6.47;4.10;;;16.50;99.90;;;;;;5060624;28;20911;-77
2021/07/12 01:49:19;;;;;;;8.05;4.28;;;16.90;99.90;;;;;;5063782;28;20674;-79
2021/07/12 01:52:43;;;;;;;3.88;3.15;;;16.90;99.90;;;;;;5061912;28;20028;-78
2021/07/12 01:55:17;;;;;;;7.10;3.83;;;16.90;99.90;;;;;;5010228;28;20125;-76
2021/07/12 01:57:47;;;;;;;6.72;4.40;;;16.80;99.90;;;;;;5060595;28;20021;-78
2021/07/12 02:00:13;;;;;;;6.78;4.13;;;16.80;99.90;;;;;;5061983;28;20025;-77
2021/07/12 02:02:43;;;;;;;7.00;3.78;;;16.80;99.90;;;;;;5059957;28;20147;-78
2021/07/12 02:05:16;;;;;;;5.40;3.30;;;16.90;99.90;;;;;;5062992;28;20549;-77
2021/07/12 02:07:44;;;;;;;5.32;3.35;;;16.80;99.90;;;;;;5060495;28;20105;-78
2021/07/12 02:10:10;;;;;;;4.63;3.05;;;16.80;99.90;;;;;;5059707;28;20028;-78
2021/07/12 02:12:37;;;;;;;4.35;3.10;;;16.80;99.90;;;;;;5061221;28;20025;-77
2021/07/12 02:15:05;;;;;;;10.15;5.22;;;16.70;99.90;;;;;;5061633;28;20039;-78
2021/07/12 02:17:31;;;;;;;4.38;3.25;;;16.70;99.90;;;;;;5063936;28;20039;-78
2021/07/12 02:20:00;;;;;;;4.50;3.33;;;16.60;99.90;;;;;;5056529;28;20079;-78
2021/07/12 02:22:27;;;;;;;5.22;3.40;;;16.70;99.90;;;;;;5061647;28;20400;-78
2021/07/12 02:24:56;;;;;;;4.45;3.40;;;16.70;99.90;;;;;;5059088;28;20021;-76
2021/07/12 02:27:22;;;;;;;6.15;3.40;;;16.60;99.90;;;;;;5056362;28;20029;-78
2021/07/12 02:29:49;;;;;;;6.47;3.60;;;16.70;99.90;;;;;;5057984;28;20390;-77
2021/07/12 02:32:18;;;;;;;3.95;3.15;;;16.70;99.90;;;;;;5064543;28;20541;-78
2021/07/12 02:34:44;;;;;;;5.00;3.47;;;16.70;99.90;;;;;;5056676;28;20136;-80
2021/07/12 02:37:10;;;;;;;4.05;3.20;;;;;;;;;;5063704;28;20534;-78
2021/07/12 02:39:36;;;;;;;4.18;3.17;;;16.60;99.90;;;;;;5060136;28;20040;-77
2021/07/12 02:42:02;;;;;;;4.45;3.10;;;16.60;99.90;;;;;;5060128;28;20490;-78
2021/07/12 02:44:30;;;;;;;4.35;3.30;;;16.60;99.90;;;;;;5063783;28;20398;-79
2021/07/12 02:46:58;;;;;;;4.50;3.05;;;16.60;99.90;;;;;;5060894;28;20077;-78
2021/07/12 02:49:24;;;;;;;4.70;3.58;;;16.60;99.90;;;;;;5064760;28;20441;-79
2021/07/12 02:51:55;;;;;;;5.18;3.08;;;16.50;99.90;;;;;;5062070;28;20037;-79
2021/07/12 02:54:27;;;;;;;4.20;3.10;;;16.60;99.90;;;;;;5064960;28;20050;-78
2021/07/12 02:56:52;;;;;;;5.43;3.03;;;16.60;99.90;;;;;;5067432;28;21471;-79
2021/07/12 02:59:18;;;;;;;4.43;3.28;;;16.60;99.90;;;;;;5062900;28;20032;-77
2021/07/12 03:01:44;;;;;;;5.88;3.25;;;16.50;99.90;;;;;;5061221;28;20089;-77
2021/07/12 03:04:10;;;;;;;5.53;3.13;;;16.50;99.90;;;;;;5066952;28;20021;-77
2021/07/12 03:06:36;;;;;;;4.53;3.03;;;16.70;99.90;;;;;;5062380;28;20032;-79
2021/07/12 03:09:04;;;;;;;4.13;2.92;;;16.50;99.90;;;;;;5059425;28;20032;-78
2021/07/12 03:11:52;;;;;;;5.15;3.38;;;16.50;99.90;;;;;;5066007;28;20552;-79
2021/07/12 03:14:38;;;;;;;3.80;3.15;;;16.50;99.90;;;;;;5064469;28;20040;-77
2021/07/12 03:17:07;;;;;;;4.43;3.05;;;16.50;99.90;;;;;;5066851;28;20025;-78
2021/07/12 03:19:37;;;;;;;5.50;3.45;;;17.40;99.90;;;;;;5064616;28;20025;-77
2021/07/12 03:22:07;;;;;;;4.88;2.85;;;16.40;99.90;;;;;;5058311;28;20033;-79
2021/07/12 03:24:36;;;;;;;3.92;3.10;;;16.40;99.90;;;;;;5061474;28;20169;-77
2021/07/12 03:27:03;;;;;;;4.47;3.50;;;16.40;99.90;;;;;;5066022;28;20090;-78
2021/07/12 03:29:30;;;;;;;4.65;3.40;;;16.40;99.90;;;;;;5066828;28;20020;-78
2021/07/12 03:31:59;;;;;;;4.63;3.13;;;16.40;99.90;;;;;;5062848;28;20028;-77
2021/07/12 03:34:27;;;;;;;3.72;3.03;;;16.60;99.90;;;;;;5065243;28;20035;-77
2021/07/12 03:36:54;;;;;;;5.18;3.00;;;16.40;99.90;;;;;;5061681;28;20235;-77
2021/07/12 03:39:24;;;;;;;5.82;3.13;;;16.40;99.90;;;;;;5066773;28;20030;-79
2021/07/12 03:41:50;;;;;;;4.28;3.13;;;16.40;99.90;;;;;;5065952;28;20112;-78
2021/07/12 03:44:16;;;;;;;5.78;3.10;;;16.40;99.90;;;;;;5067229;28;20686;-78
2021/07/12 03:46:44;;;;;;;5.45;3.33;;;16.50;99.90;;;;;;5066489;28;20020;-78
2021/07/12 03:49:14;;;;;;;5.28;3.28;;;16.40;99.90;;;;;;5065240;28;20021;-80
2021/07/12 03:51:40;;;;;;;4.38;3.35;;;16.50;99.90;;;;;;5065176;28;20056;-78
2021/07/12 03:54:06;;;;;;;4.68;2.97;;;16.50;99.90;;;;;;5061946;28;20041;-78
2021/07/12 03:56:33;;;;;;;5.80;3.42;;;16.50;99.90;;;;;;5060459;28;20032;-78
2021/07/12 03:59:00;;;;;;;4.93;2.92;;;16.80;99.90;;;;;;5066432;28;20051;-78
2021/07/12 04:01:26;;;;;;;4.13;3.17;;;16.50;99.90;;;;;;5062557;28;20092;-78
2021/07/12 04:03:53;;;;;;;4.18;2.95;;;16.40;99.90;;;;;;5069693;28;20036;-79
2021/07/12 04:06:19;;;;;;;4.57;2.97;;;16.90;99.90;;;;;;5067430;28;20029;-79
2021/07/12 04:08:45;;;;;;;5.18;3.10;;;16.50;99.90;;;;;;5068121;28;20031;-78
2021/07/12 04:11:12;;;;;;;5.72;2.90;;;16.50;99.90;;;;;;5067317;28;20036;-79
2021/07/12 04:13:38;;;;;;;4.47;2.65;;;16.60;99.90;;;;;;5065192;28;20029;-77
2021/07/12 04:16:04;;;;;;;4.32;2.88;;;16.60;99.90;;;;;;5068099;28;20095;-80
2021/07/12 04:18:30;;;;;;;5.10;3.03;;;16.60;99.90;;;;;;5069253;28;20080;-78
2021/07/12 04:20:56;;;;;;;4.72;2.80;;;16.60;99.90;;;;;;5058632;28;20051;-78
2021/07/12 04:23:21;;;;;;;3.90;2.70;;;16.60;99.90;;;;;;5062834;28;20040;-79
2021/07/12 04:25:47;;;;;;;5.82;3.42;;;16.60;99.90;;;;;;5069749;28;20031;-78
2021/07/12 04:28:13;;;;;;;6.22;3.15;;;16.60;99.90;;;;;;5066097;28;20535;-78
2021/07/12 04:30:38;;;;;;;7.22;3.42;;;16.70;99.90;;;;;;5061265;28;20044;-77
2021/07/12 04:33:04;;;;;;;4.20;3.10;;;16.60;99.90;;;;;;5068061;28;20075;-78
2021/07/12 04:35:30;;;;;;;6.55;3.72;;;16.70;99.90;;;;;;5067430;28;20120;-79
2021/07/12 04:37:56;;;;;;;4.55;3.03;;;16.60;99.90;;;;;;5065762;28;20024;-79
2021/07/12 04:40:22;;;;;;;5.72;3.53;;;17.70;99.90;;;;;;5064113;28;20039;-77
2021/07/12 04:42:47;;;;;;;5.25;3.10;;;16.70;99.90;;;;;;5076143;28;20051;-76
2021/07/12 04:45:13;;;;;;;4.38;2.92;;;16.70;99.90;;;;;;5066438;28;20111;-79
2021/07/12 04:47:39;;;;;;;5.80;2.83;;;16.70;99.90;;;;;;5065811;28;20508;-77
2021/07/12 04:50:06;;;;;;;3.53;2.72;;;16.80;99.90;;;;;;5061608;28;20060;-78
2021/07/12 04:52:33;;;;;;;5.63;2.88;;;16.80;99.90;;;;;;5079918;28;20028;-78
2021/07/12 04:54:59;;;;;;;3.65;2.65;;;16.80;99.90;;;;;;5058154;28;20486;-79
2021/07/12 04:57:24;;;;;;;4.20;2.75;;;16.90;99.90;;;;;;5058795;28;23489;-80
2021/07/12 04:59:51;;;;;;;3.50;2.60;;;16.90;99.90;;;;;;5059140;28;20028;-79
2021/07/12 05:02:17;;;;;;;3.58;2.53;;;17.80;99.90;;;;;;5066184;28;20021;-76
2021/07/12 05:04:43;;;;;;;4.72;2.65;;;17.10;99.90;;;;;;5062266;28;20028;-78
2021/07/12 05:07:13;;;;;;;4.20;2.38;;;17.10;99.90;;;;;;5061698;28;20036;-77
2021/07/12 05:09:39;;;;;;;7.32;2.70;;;17.30;99.90;;;;;;5071678;28;20036;-78
2021/07/12 05:12:09;;;;;;;4.30;2.45;;;17.40;99.90;;;;;;5069792;28;20409;-78
2021/07/12 05:14:38;;;;;;;4.32;2.97;;;17.50;99.90;;;;;;5068545;28;20028;-78
2021/07/12 05:17:05;;;;;;;4.10;2.40;;;17.50;99.90;;;;;;5068810;28;20092;-76
2021/07/12 05:19:31;;;;;;;4.90;2.50;;;17.60;99.90;;;;;;5067273;28;20029;-80
2021/07/12 05:21:57;;;;;;;4.82;2.60;;;17.80;99.90;;;;;;5065068;28;20036;-78
2021/07/12 05:24:22;;;;;;;3.78;2.55;;;17.60;99.90;;;;;;5062499;28;20309;-78
2021/07/12 05:26:48;;;;;;;3.60;2.58;;;17.60;99.90;;;;;;5062214;28;20025;-78
2021/07/12 05:29:14;;;;;;;4.70;2.30;;;19.60;99.90;;;;;;5063593;28;20031;-77
2021/07/12 05:31:39;;;;;;;3.17;2.35;;;17.60;99.90;;;;;;5059424;28;20428;-79
2021/07/12 05:34:05;;;;;;;2.92;2.20;;;17.70;99.90;;;;;;5065859;28;20028;-78
2021/07/12 05:36:31;;;;;;;4.80;2.35;;;18.10;99.90;;;;;;5064899;28;20020;-78
2021/07/12 05:38:57;;;;;;;3.95;2.13;;;17.80;99.90;;;;;;5069463;28;20038;-78
2021/07/12 05:41:22;;;;;;;6.22;2.50;;;17.90;99.90;;;;;;5063694;28;20021;-78
2021/07/12 05:43:48;;;;;;;4.60;2.50;;;18.10;99.90;;;;;;5067287;28;20118;-79
2021/07/12 05:46:14;;;;;;;3.75;2.50;;;18.10;99.90;;;;;;5068016;28;20024;-79
2021/07/12 05:48:39;;;;;;;3.53;2.13;;;18.20;99.90;;;;;;5062972;28;20016;-79
2021/07/12 05:51:05;;;;;;;2.97;2.10;;;18.40;99.90;;;;;;5061844;28;20131;-79
2021/07/12 05:53:31;;;;;;;5.10;2.45;;;18.60;99.90;;;;;;5062752;28;20071;-81
2021/07/12 05:55:57;;;;;;;4.03;1.90;;;19.40;99.90;;;;;;5065885;28;20028;-81
2021/07/12 05:58:22;;;;;;;3.30;2.05;;;19.10;99.90;;;;;;5070833;28;20033;-80
2021/07/12 06:00:48;;;;;;;4.65;2.67;;;19.60;99.90;;;;;;5064249;28;20039;-79
2021/07/12 06:03:14;;;;;;;3.15;2.25;;;19.50;99.90;;;;;;5060143;28;20518;-78
2021/07/12 06:05:40;;;;;;;3.05;2.10;;;;;;;;;;5061023;28;20024;-80
2021/07/12 06:08:06;;;;;;;2.78;2.00;;;19.50;99.90;;;;;;5075750;28;20024;-79
2021/07/12 06:10:32;;;;;;;3.17;2.08;;;19.40;99.90;;;;;;5076407;28;20034;-78
2021/07/12 06:12:57;;;;;;;3.22;2.28;;;18.90;99.90;;;;;;5067522;28;20063;-78
2021/07/12 06:15:23;;;;;;;3.97;2.05;;;18.90;99.90;;;;;;5071293;28;20036;-79
2021/07/12 06:17:51;;;;;;;4.03;2.55;;;18.80;99.90;;;;;;5067675;28;20209;-80
2021/07/12 06:20:18;;;;;;;3.97;2.38;;;19.40;99.90;;;;;;5072281;28;20028;-79
2021/07/12 06:22:44;;;;;;;3.67;2.00;;;18.90;99.90;;;;;;5076831;28;20112;-82
2021/07/12 06:25:11;;;;;;;4.03;2.25;;;18.90;99.90;;;;;;5096311;28;20060;-80
2021/07/12 06:27:36;;;;;;;4.28;2.42;;;19.00;99.90;;;;;;5081589;28;20076;-79
2021/07/12 06:30:06;;;;;;;4.90;2.20;;;19.00;99.90;;;;;;5071383;28;20134;-79
2021/07/12 06:32:32;;;;;;;7.13;2.35;;;19.10;99.90;;;;;;5070248;28;20021;-79
2021/07/12 06:34:58;;;;;;;2.88;1.90;;;19.20;99.90;;;;;;5073101;28;20399;-78
2021/07/12 06:37:23;;;;;;;4.80;1.65;;;19.20;99.90;;;;;;5083047;28;20032;-79
2021/07/12 06:39:52;;;;;;;3.53;2.35;;;19.30;99.90;;;;;;5071047;28;20119;-78
2021/07/12 06:42:18;;;;;;;4.18;2.15;;;19.20;99.90;;;;;;5066789;28;20032;-78
2021/07/12 06:44:43;;;;;;;2.60;1.90;;;19.30;99.90;;;;;;5072749;28;20059;-79
2021/07/12 06:47:09;;;;;;;3.17;1.90;;;19.40;99.90;;;;;;5077553;28;20090;-79
2021/07/12 06:49:35;;;;;;;6.93;2.08;;;19.60;99.90;;;;;;5070173;28;20032;-80
2021/07/12 06:52:01;;;;;;;3.78;2.08;;;21.00;99.90;;;;;;5067840;28;20033;-80
2021/07/12 06:54:26;;;;;;;2.70;1.90;;;20.60;99.90;;;;;;5072075;28;20457;-78
2021/07/12 06:56:52;;;;;;;3.50;1.92;;;20.00;99.90;;;;;;5070900;28;20039;-78
2021/07/12 06:59:18;;;;;;;2.33;1.70;;;;;;;;;;5075038;28;20294;-79
2021/07/12 07:01:44;;;;;;;3.63;1.77;;;;;;;;;;5065591;28;20032;-78
2021/07/12 07:04:12;;;;;;;3.13;1.90;;;20.00;99.90;;;;;;5071174;28;20024;-76
2021/07/12 07:06:41;;;;;;;2.80;1.88;;;;;;;;;;5071146;28;20048;-79
2021/07/12 07:09:06;;;;;;;2.35;1.52;;;19.90;99.90;;;;;;5072572;28;20287;-78
2021/07/12 07:11:32;;;;;;;3.67;2.10;;;19.90;99.90;;;;;;5066782;28;20143;-78
2021/07/12 07:13:59;;;;;;;6.95;2.58;;;19.90;99.90;;;;;;5068848;28;20151;-79
2021/07/12 07:16:25;;;;;;;3.72;1.90;;;20.00;99.90;;;;;;5060064;28;20025;-78
2021/07/12 07:18:51;;;;;;;4.05;1.98;;;;;;;;;;5062555;28;20060;-78
2021/07/12 07:21:17;;;;;;;3.10;1.90;;;;;;;;;;5060367;28;20082;-77
2021/07/12 07:23:43;;;;;;;4.07;2.65;;;20.30;99.90;;;;;;5060765;28;20047;-78
2021/07/12 07:26:12;;;;;;;3.78;1.95;;;20.30;99.90;;;;;;5062287;28;20033;-78
2021/07/12 07:28:38;;;;;;;4.63;2.22;;;20.20;99.90;;;;;;5058985;28;20028;-77
2021/07/12 07:31:05;;;;;;;4.82;2.50;;;;;;;;;;5066702;28;20072;-78
2021/07/12 07:33:31;;;;;;;5.25;2.05;;;19.90;99.90;;;;;;5063595;28;20036;-77
2021/07/12 07:35:57;;;;;;;5.03;2.53;;;20.00;99.90;;;;;;5066620;28;20032;-78
2021/07/12 07:38:23;;;;;;;4.60;2.42;;;20.00;99.90;;;;;;5063248;28;20029;-78
2021/07/12 07:40:49;;;;;;;5.13;2.45;;;20.20;99.90;;;;;;5064787;28;20033;-78
2021/07/12 07:43:15;;;;;;;3.67;2.35;;;20.40;99.90;;;;;;5063761;28;20663;-78
2021/07/12 07:45:43;;;;;;;4.18;2.20;;;20.20;99.90;;;;;;5065356;28;20024;-78
2021/07/12 07:48:09;;;;;;;24.75;10.55;;;;;;;;;;5071266;28;20050;-77
2021/07/12 07:50:40;;;;;;;7.28;2.58;;;;;;;;;;5069884;28;20056;-78
2021/07/12 07:53:07;;;;;;;3.72;2.42;;;20.20;99.90;;;;;;5068697;28;20645;-78
2021/07/12 07:55:33;;;;;;;7.35;3.70;;;20.20;99.90;;;;;;5065836;28;20028;-78
2021/07/12 07:57:59;;;;;;;3.42;2.15;;;20.10;99.90;;;;;;5060945;28;20028;-77
2021/07/12 08:00:25;;;;;;;3.92;2.30;;;20.10;99.90;;;;;;5064230;28;20029;-77
2021/07/12 08:02:52;;;;;;;4.93;2.28;;;20.10;99.90;;;;;;5065902;28;20028;-78
2021/07/12 08:05:19;;;;;;;4.00;2.15;;;20.10;99.90;;;;;;5063803;28;20489;-78
2021/07/12 08:07:45;;;;;;;2.85;1.95;;;;;;;;;;5068127;28;20025;-78
2021/07/12 08:10:13;;;;;;;3.33;2.17;;;20.20;99.90;;;;;;5064932;28;20116;-75
2021/07/12 08:12:40;;;;;;;9.10;2.45;;;20.00;99.90;;;;;;5047620;28;20033;-77
2021/07/12 08:15:08;;;;;;;10.50;3.03;;;22.90;99.90;;;;;;5058495;28;20033;-78
2021/07/12 08:17:34;;;;;;;3.97;3.17;;;;;;;;;;5067308;28;20046;-76
2021/07/12 08:19:59;;;;;;;4.40;2.40;;;19.90;99.90;;;;;;5057142;28;20020;-79
2021/07/12 08:22:25;;;;;;;4.70;2.15;;;19.90;99.90;;;;;;5065820;28;20028;-79
2021/07/12 08:24:51;;;;;;;4.80;2.40;;;20.00;99.90;;;;;;5060098;28;20085;-78
2021/07/12 08:27:17;;;;;;;3.72;2.25;;;20.60;99.90;;;;;;5063944;28;20025;-77
2021/07/12 08:29:42;;;;;;;4.30;2.28;;;20.10;99.90;;;;;;5063952;28;20405;-77
2021/07/12 08:32:08;;;;;;;3.90;2.42;;;20.60;99.90;;;;;;5061201;28;20149;-78
2021/07/12 08:34:40;;;;;;;3.67;2.38;;;21.10;99.90;;;;;;5066650;28;20036;-78
2021/07/12 08:37:06;;;;;;;4.05;2.88;;;20.30;99.90;;;;;;5064098;28;20032;-77
2021/07/12 08:39:32;;;;;;;5.60;2.50;;;;;;;;;;5068221;28;20056;-78
2021/07/12 08:41:59;;;;;;;3.97;2.17;;;20.60;99.90;;;;;;5070408;28;20039;-77
2021/07/12 08:44:25;;;;;;;4.32;2.67;;;20.70;99.90;;;;;;5071593;28;20021;-77
2021/07/12 08:46:51;;;;;;;4.47;2.22;;;20.80;99.90;;;;;;5073309;28;20028;-77
2021/07/12 08:49:17;;;;;;;6.88;2.30;;;20.90;99.90;;;;;;5083862;28;20051;-78
2021/07/12 08:51:43;;;;;;;2.83;2.00;;;21.00;99.90;;;;;;5064241;28;20037;-78
2021/07/12 08:54:09;;;;;;;3.95;1.90;;;;;;;;;;5069453;28;20059;-76
2021/07/12 08:56:35;;;;;;;3.65;2.20;;;20.90;99.90;;;;;;5072683;28;20024;-78
2021/07/12 08:59:36;;;;;;;4.05;2.17;;;20.90;99.90;;;;;;5063006;28;20021;-78
2021/07/12 09:02:06;;;;;;;4.25;2.00;;;21.00;99.90;;;;;;5061907;28;20129;-76
2021/07/12 09:04:34;;;;;;;3.53;2.50;;;21.10;99.90;;;;;;5066080;28;20024;-78
2021/07/12 09:07:11;;;;;;;3.85;2.28;;;21.10;99.90;;;;;;5063622;28;20503;-77
2021/07/12 09:09:38;;;;;;;4.05;2.15;;;21.10;99.90;;;;;;5061815;28;20462;-77
2021/07/12 09:12:13;;;;;;;3.85;2.38;;;21.10;99.90;;;;;;5061733;28;20112;-78
2021/07/12 09:14:39;;;;;;;4.60;2.15;;;;;;;;;;5053359;28;20076;-77
2021/07/12 09:17:07;;;;;;;4.40;2.20;;;21.10;99.90;;;;;;5063203;28;20028;-77
2021/07/12 09:19:36;;;;;;;4.40;2.20;;;21.00;99.90;;;;;;5064614;28;20029;-74
2021/07/12 09:22:06;;;;;;;3.72;2.30;;;21.20;99.90;;;;;;5060773;28;20033;-75
2021/07/12 09:24:45;;;;;;;3.78;2.33;;;21.20;99.90;;;;;;5056517;28;20017;-79
2021/07/12 09:27:15;;;;;;;4.88;2.20;;;21.30;99.90;;;;;;5061148;28;20027;-77
2021/07/12 09:29:44;;;;;;;3.08;2.10;;;21.30;99.90;;;;;;5061512;28;20021;-77
2021/07/12 09:32:17;;;;;;;3.00;2.20;;;21.40;99.90;;;;;;5046427;28;20549;-76
2021/07/12 09:34:45;;;;;;;2.75;1.80;;;21.30;99.90;;;;;;5063873;28;20298;-77
2021/07/12 09:37:16;;;;;;;3.38;2.05;;;21.20;99.90;;;;;;5070571;28;20044;-78
2021/07/12 09:39:47;;;;;;;3.05;2.17;;;21.20;99.90;;;;;;5054839;28;20472;-76
2021/07/12 09:42:33;;;;;;;4.28;2.00;;;21.30;99.90;;;;;;5063145;28;20132;-77
2021/07/12 09:45:07;;;;;;;3.53;2.40;;;21.30;99.90;;;;;;5061624;28;20457;-79
2021/07/12 09:47:35;;;;;;;4.78;2.13;;;21.40;99.90;;;;;;5056477;28;20028;-77
2021/07/12 09:50:10;;;;;;;5.30;2.85;;;21.40;99.90;;;;;;5063161;28;20026;-78
2021/07/12 09:52:37;;;;;;;7.47;3.05;;;21.50;99.90;;;;;;5062486;28;20029;-79
2021/07/12 09:55:03;;;;;;;4.35;2.50;;;;;;;;;;5060536;28;20037;-78
2021/07/12 09:57:29;;;;;;;3.58;2.40;;;;;;;;;;5054558;28;20025;-78
2021/07/12 10:00:01;;;;;;;6.18;4.55;;;21.60;99.90;;;;;;5056352;28;20557;-79
2021/07/12 10:02:30;;;;;;;4.97;2.60;;;22.70;99.90;;;;;;5056430;28;20033;-79
2021/07/12 10:05:02;;;;;;;3.45;2.40;;;21.80;99.90;;;;;;5055524;28;20037;-77
2021/07/12 10:07:29;;;;;;;4.80;2.67;;;23.50;99.90;;;;;;5065890;28;20093;-79
2021/07/12 10:09:56;;;;;;;4.43;2.45;;;23.80;99.90;;;;;;5064039;28;20025;-77
2021/07/12 10:12:21;;;;;;;3.20;2.20;;;21.80;99.90;;;;;;5057796;28;20025;-78
2021/07/12 10:14:48;;;;;;;3.38;2.28;;;21.80;99.90;;;;;;5058576;28;20062;-78
2021/07/12 10:17:14;;;;;;;6.18;2.38;;;21.80;99.90;;;;;;5055803;28;20032;-78
2021/07/12 10:19:43;;;;;;;4.68;2.80;;;21.70;99.90;;;;;;5060908;28;20024;-76
2021/07/12 10:22:11;;;;;;;5.00;2.70;;;21.80;99.90;;;;;;5058892;28;20036;-78
2021/07/12 10:24:42;;;;;;;4.28;2.47;;;21.70;99.90;;;;;;5055459;28;20024;-77
2021/07/12 10:27:22;;;;;;;3.58;2.35;;;21.80;99.90;;;;;;5055182;28;20041;-76
2021/07/12 10:29:48;;;;;;;;;;;21.80;99.90;;;;;;5058302;28;20474;-76
2021/07/12 10:32:19;;;;;;;3.08;2.10;;;22.00;99.90;;;;;;5060981;28;19916;-75
2021/07/12 10:34:48;;;;;;;4.20;2.38;;;22.00;99.90;;;;;;5055280;28;20595;-76
2021/07/12 10:37:29;;;;;;;4.00;2.17;;;22.10;99.90;;;;;;5061706;28;20485;-75
2021/07/12 10:40:08;;;;;;;2.85;2.03;;;22.10;99.90;;;;;;5064578;28;20041;-76
2021/07/12 10:42:50;;;;;;;4.55;2.55;;;21.40;99.90;;;;;;5062650;28;20071;-76
2021/07/12 10:45:20;;;;;;;3.75;2.17;;;22.30;99.90;;;;;;5062525;28;20020;-75
2021/07/12 10:48:02;;;;;;;3.27;2.23;;;22.40;99.90;;;;;;5053544;28;20021;-77
2021/07/12 10:50:43;;;;;;;3.42;2.17;;;22.40;99.90;;;;;;5064903;28;20282;-77
2021/07/12 10:53:15;;;;;;;3.72;2.35;;;22.40;99.90;;;;;;5060842;28;20029;-77
2021/07/12 10:56:09;;;;;;;3.28;2.40;;;22.30;99.90;;;;;;5055280;28;20432;-77
2021/07/12 10:58:37;;;;;;;3.70;2.55;;;22.30;99.90;;;;;;5062464;28;20116;-76
2021/07/12 11:01:04;;;;;;;2.67;2.13;;;22.40;99.90;;;;;;5058166;28;20621;-77
2021/07/12 11:03:44;;;;;;;5.60;2.40;;;22.30;99.90;;;;;;5060809;28;20033;-77
2021/07/12 11:06:15;;;;;;;4.70;2.58;;;22.30;99.90;;;;;;5063454;28;20037;-75
2021/07/12 11:08:46;;;;;;;4.95;2.20;;;22.40;99.90;;;;;;5064581;28;20036;-77
2021/07/12 11:11:24;;;;;;;5.88;2.33;;;22.30;99.90;;;;;;5065842;28;20509;-76
2021/07/12 11:13:58;;;;;;;5.40;2.40;;;22.30;99.90;;;;;;5065338;28;20028;-77
2021/07/12 11:16:25;;;;;;;3.63;2.55;;;22.20;99.90;;;;;;5069308;28;20417;-77
2021/07/12 11:18:53;;;;;;;5.13;2.40;;;22.10;99.90;;;;;;5067347;28;20972;-77
2021/07/12 11:21:34;;;;;;;8.20;3.13;;;22.20;99.90;;;;;;5065492;28;20056;-77
2021/07/12 11:24:09;;;;;;;4.93;2.30;;;22.20;99.90;;;;;;5067690;28;20396;-76
2021/07/12 11:26:38;;;;;;;4.03;2.45;;;22.20;99.90;;;;;;5066145;28;20084;-77
2021/07/12 11:29:31;;;;;;;4.05;2.72;;;22.20;99.90;;;;;;5066680;28;20032;-76
2021/07/12 11:32:07;;;;;;;5.28;2.15;;;22.10;99.90;;;;;;5063507;28;20453;-77
2021/07/12 11:34:35;;;;;;;4.38;2.47;;;22.20;99.90;;;;;;5068014;28;20064;-77
2021/07/12 11:37:09;;;;;;;4.18;2.67;;;22.20;99.90;;;;;;5065292;28;20016;-77
2021/07/12 11:39:43;;;;;;;5.45;2.40;;;22.10;99.90;;;;;;5069536;28;20044;-78
2021/07/12 11:42:21;;;;;;;5.40;2.20;;;22.10;99.90;;;;;;5065395;28;20025;-78
2021/07/12 11:44:57;;;;;;;3.50;2.28;;;22.10;99.90;;;;;;5068273;28;20021;-78
2021/07/12 11:47:32;;;;;;;3.50;2.70;;;22.10;99.90;;;;;;5061829;28;20138;-77
2021/07/12 11:50:10;;;;;;;5.00;2.40;;;22.10;99.90;;;;;;5066340;28;20021;-78
2021/07/12 11:52:38;;;;;;;3.92;2.58;;;22.20;99.90;;;;;;5064931;28;20075;-77
2021/07/12 11:55:30;;;;;;;2.80;2.20;;;22.30;99.90;;;;;;5064491;28;20075;-76
2021/07/12 11:57:58;;;;;;;3.83;2.50;;;22.40;99.90;;;;;;5062246;28;20047;-77
2021/07/12 12:00:29;;;;;;;3.05;2.42;;;22.30;99.90;;;;;;5060265;28;20048;-78
2021/07/12 12:03:14;;;;;;;5.38;2.40;;;22.50;99.90;;;;;;5061644;28;20037;-78
2021/07/12 12:05:42;;;;;;;3.75;2.28;;;22.50;99.90;;;;;;5065164;28;20036;-77
2021/07/12 12:08:14;;;;;;;4.93;2.22;;;22.80;99.90;;;;;;5061484;28;20044;-77
2021/07/12 12:10:40;;;;;;;4.68;2.72;;;22.50;99.90;;;;;;5062906;28;20102;-80
2021/07/12 12:13:10;;;;;;;4.32;2.15;;;22.60;99.90;;;;;;5064228;28;20039;-79
2021/07/12 12:15:38;;;;;;;;;;;22.50;99.90;;;;;;5060649;28;20156;-80
2021/07/12 12:18:06;;;;;;;2.60;2.00;;;22.50;99.90;;;;;;5057224;28;19908;-78
2021/07/12 12:20:36;;;;;;;3.72;2.15;;;22.50;99.90;;;;;;5060760;28;20025;-78
2021/07/12 12:23:08;;;;;;;5.88;2.22;;;22.50;99.90;;;;;;5063433;28;20032;-78
2021/07/12 12:25:56;;;;;;;5.18;2.50;;;22.50;99.90;;;;;;5063977;28;20103;-80
2021/07/12 12:28:24;;;;;;;4.13;2.30;;;22.60;99.90;;;;;;5061495;28;20540;-79
2021/07/12 12:30:51;;;;;;;5.00;2.05;;;22.60;99.70;;;;;;5078925;28;20115;-77
2021/07/12 12:33:27;;;;;;;4.28;2.40;;;22.70;99.90;;;;;;5059072;28;20036;-78
2021/07/12 12:36:08;;;;;;;7.35;2.40;;;22.90;99.80;;;;;;5056138;28;20032;-76
2021/07/12 12:38:34;;;;;;;9.20;2.60;;;23.20;99.10;;;;;;5053636;28;20108;-77
2021/07/12 12:41:08;;;;;;;3.65;2.10;;;23.20;99.00;;;;;;5064053;28;20037;-78
2021/07/12 12:43:36;;;;;;;3.08;1.77;;;23.30;98.30;;;;;;5055191;28;20644;-78
2021/07/12 12:46:05;;;;;;;4.72;1.90;;;23.50;98.20;;;;;;5053201;28;20035;-78
2021/07/12 12:48:31;;;;;;;5.03;2.17;;;23.70;97.50;;;;;;5054305;28;20123;-77
2021/07/12 12:50:57;;;;;;;4.03;1.92;;;23.70;97.80;;;;;;5052648;28;20025;-78
2021/07/12 12:53:30;;;;;;;2.40;1.85;;;23.70;97.40;;;;;;5061137;28;20024;-78
2021/07/12 12:55:56;;;;;;;3.10;2.13;;;23.60;97.20;;;;;;5058732;28;20031;-78
2021/07/12 12:58:26;;;;;;;2.30;1.70;;;23.60;97.30;;;;;;5060006;28;20509;-76
2021/07/12 13:00:52;;;;;;;;;;;23.60;97.30;;;;;;5063893;28;20032;-77
2021/07/12 13:03:18;;;;;;;3.38;2.03;;;23.60;97.20;;;;;;5056535;28;19916;-77
2021/07/12 13:05:59;;;;;;;3.50;2.08;;;23.60;97.10;;;;;;5055826;28;20084;-76